Time;durP1;ratioP1;P1;durP2;ratioP2;P2;SDS_P1;SDS_P2;PMS_P1;PMS_P2;Temp;Humidity;BMP_temperature;BMP_pressure;BME280_temperature;BME280_humidity;BME280_pressure;Samples;Min_cycle;Max_cycle;Signal;HPM_P1;HPM_P2
2023/02/20 00:00:45;;;;;;;25.80;11.40;;;;;;;-4.13;74.55;97344.59;5088036;28;20064;-35
2023/02/20 00:03:14;;;;;;;28.00;11.65;;;;;;;-3.76;74.27;97414.28;5071470;28;20553;-35
2023/02/20 00:05:40;;;;;;;28.23;11.77;;;;;;;-3.77;74.49;97415.16;5070518;28;20056;-35
2023/02/20 00:08:05;;;;;;;26.30;11.10;;;;;;;-3.80;74.55;97417.72;5088434;28;20525;-38
2023/02/20 00:10:32;;;;;;;26.00;11.20;;;;;;;-3.88;74.23;97414.47;5088845;28;20035;-35
2023/02/20 00:12:58;;;;;;;30.05;11.27;;;;;;;-4.11;74.08;97391.09;5098766;28;20047;-35
2023/02/20 00:15:23;;;;;;;26.77;11.45;;;;;;;-4.01;74.04;97421.41;5092062;28;20517;-35
2023/02/20 00:17:49;;;;;;;28.55;11.90;;;;;;;-4.06;74.21;97415.53;5120656;27;20538;-35
2023/02/20 00:20:18;;;;;;;28.30;11.82;;;;;;;-4.08;74.50;97419.78;5073477;28;20042;-35
2023/02/20 00:22:44;;;;;;;28.43;12.57;;;;;;;-4.18;74.24;97412.31;5086272;28;20515;-37
2023/02/20 00:25:10;;;;;;;30.50;11.80;;;;;;;-4.40;74.37;97378.81;5084442;28;20104;-36
2023/02/20 00:27:36;;;;;;;29.15;12.05;;;;;;;-4.24;74.63;97420.88;5078306;28;20048;-35
2023/02/20 00:30:03;;;;;;;29.50;11.48;;;;;;;-4.28;74.60;97411.59;5096259;28;20032;-35
2023/02/20 00:32:30;;;;;;;25.98;11.60;;;;;;;-4.32;74.69;97418.41;5086030;28;20044;-34
2023/02/20 00:34:55;;;;;;;25.17;10.75;;;;;;;-4.36;74.24;97418.47;5086471;28;20535;-35
2023/02/20 00:37:21;;;;;;;27.48;10.70;;;;;;;-4.45;75.01;97410.97;5086201;28;20109;-35
2023/02/20 00:39:47;;;;;;;24.58;10.90;;;;;;;-4.49;75.00;97414.38;5081019;28;20044;-34
2023/02/20 00:42:13;;;;;;;26.77;11.32;;;;;;;-4.53;75.06;97412.75;5088234;28;20568;-35
2023/02/20 00:44:39;;;;;;;22.77;10.75;;;;;;;-4.58;74.78;97420.41;5077457;28;20094;-35
2023/02/20 00:47:05;;;;;;;29.17;11.32;;;;;;;-4.89;74.53;97373.44;5086626;28;20062;-34
2023/02/20 00:49:31;;;;;;;30.17;11.98;;;;;;;-4.65;75.13;97410.34;5084712;28;20035;-35
2023/02/20 00:52:08;;;;;;;25.20;11.27;;;;;;;-4.67;75.34;97414.59;5087039;28;20040;-35
2023/02/20 00:54:34;;;;;;;27.95;11.20;;;;;;;-4.89;75.49;97375.97;5066509;28;20803;-33
2023/02/20 00:57:00;;;;;;;26.00;10.25;;;;;;;-4.73;75.33;97405.38;5087669;28;20046;-34
2023/02/20 00:59:26;;;;;;;26.83;10.73;;;;;;;-4.77;75.23;97408.81;5079003;28;20491;-35
2023/02/20 01:01:52;;;;;;;24.10;10.57;;;;;;;-5.01;75.19;97363.44;5065190;28;20041;-35
2023/02/20 01:04:18;;;;;;;30.08;12.43;;;;;;;-4.82;75.75;97411.38;5072168;28;20059;-35
2023/02/20 01:06:44;;;;;;;23.35;10.40;;;;;;;-5.06;75.51;97375.31;5072656;28;20593;-35
2023/02/20 01:09:11;;;;;;;23.20;10.50;;;;;;;-4.86;75.85;97414.78;5080159;28;20037;-35
2023/02/20 01:11:37;;;;;;;27.17;10.85;;;;;;;-4.96;75.49;97403.06;5085322;28;20131;-34
2023/02/20 01:14:04;;;;;;;26.98;10.63;;;;;;;-4.92;75.73;97408.97;5086792;28;20119;-35
2023/02/20 01:16:30;;;;;;;27.60;11.27;;;;;;;-5.02;75.92;97398.06;5100067;28;20519;-35
2023/02/20 01:18:56;;;;;;;29.00;11.25;;;;;;;-5.12;75.55;97384.63;5082423;28;20036;-34
2023/02/20 01:21:23;;;;;;;27.08;10.90;;;;;;;-5.02;76.01;97407.38;5066686;28;20040;-34
2023/02/20 01:23:49;;;;;;;25.67;11.32;;;;;;;-5.19;75.73;97390.63;5076355;28;20047;-35
2023/02/20 01:26:15;;;;;;;26.65;11.10;;;;;;;-5.02;76.18;97408.19;5081924;28;20036;-36
2023/02/20 01:28:46;;;;;;;26.52;11.00;;;;;;;-5.06;75.83;97409.06;5080235;28;20040;-35
2023/02/20 01:31:12;;;;;;;27.52;11.43;;;;;;;-5.05;76.01;97413.28;5085980;28;20040;-35
2023/02/20 01:33:42;;;;;;;26.42;10.70;;;;;;;-5.42;75.96;97346.13;5086897;28;20505;-34
2023/02/20 01:36:10;;;;;;;26.88;10.65;;;;;;;-5.00;75.87;97420.84;5069686;28;20143;-35
2023/02/20 01:38:36;;;;;;;26.45;9.93;;;;;;;-5.01;75.66;97414.09;5062606;28;20041;-36
2023/02/20 01:41:02;;;;;;;24.95;10.70;;;;;;;-5.20;76.12;97385.59;5079772;28;20555;-35
2023/02/20 01:43:28;;;;;;;25.15;10.57;;;;;;;-4.99;76.21;97420.00;5070240;28;20128;-35
2023/02/20 01:46:36;;;;;;;27.02;10.82;;;;;;;-4.96;75.71;97414.88;5069481;28;20089;-35
2023/02/20 01:49:05;;;;;;;26.20;10.85;;;;;;;-4.92;75.88;97419.09;5079336;28;20184;-34
2023/02/20 01:51:35;;;;;;;27.80;11.02;;;;;;;-4.83;75.59;97429.13;5120871;28;20040;-35
2023/02/20 01:54:01;;;;;;;;;;;;;;;-4.78;76.03;97420.63;5053906;28;20101;-34
2023/02/20 01:56:27;;;;;;;25.60;10.00;;;;;;;-4.72;75.40;97420.56;5083911;28;20017;-35
2023/02/20 01:58:53;;;;;;;23.55;10.32;;;;;;;-4.89;75.73;97381.88;5066648;28;20075;-35
2023/02/20 02:01:19;;;;;;;25.23;9.50;;;;;;;-4.59;75.50;97418.72;5066393;28;20033;-35
2023/02/20 02:03:49;;;;;;;24.27;10.13;;;;;;;-4.72;75.49;97392.69;5067180;28;20048;-35
2023/02/20 02:06:15;;;;;;;24.17;10.65;;;;;;;-4.51;75.03;97429.63;5063323;28;20045;-35
2023/02/20 02:08:43;;;;;;;25.00;10.20;;;;;;;-4.47;75.29;97431.28;5066574;28;20064;-36
2023/02/20 02:11:14;;;;;;;22.15;9.90;;;;;;;-4.44;75.44;97432.91;5048216;28;20032;-35
2023/02/20 02:13:42;;;;;;;27.80;10.30;;;;;;;-4.43;75.56;97425.31;5095685;28;20633;-35
2023/02/20 02:16:36;;;;;;;21.30;8.98;;;;;;;-4.44;75.19;97426.16;5061470;28;20519;-35
2023/02/20 02:19:41;;;;;;;21.83;9.95;;;;;;;-4.38;74.98;97430.31;5067045;28;20503;-34
2023/02/20 02:22:25;;;;;;;23.13;8.50;;;;;;;-4.36;75.30;97436.22;5052218;28;20056;-35
2023/02/20 02:25:19;;;;;;;24.40;9.75;;;;;;;-4.35;75.43;97443.81;5056733;28;20032;-34
2023/02/20 02:28:10;;;;;;;23.92;9.25;;;;;;;-4.31;74.42;97435.31;5084785;28;20037;-34
2023/02/20 02:31:12;;;;;;;23.70;9.13;;;;;;;-4.26;74.71;97435.25;5079372;28;20051;-35
2023/02/20 02:34:03;;;;;;;22.95;9.65;;;;;;;-4.25;74.90;97446.25;5089139;28;20188;-36
2023/02/20 02:36:46;;;;;;;22.35;9.70;;;;;;;-4.20;74.85;97447.03;5072385;28;20075;-35
2023/02/20 02:39:28;;;;;;;18.10;8.27;;;;;;;-4.18;74.49;97443.59;5084355;28;20081;-35
2023/02/20 02:42:17;;;;;;;21.13;9.40;;;;;;;-4.13;74.69;97452.00;5055033;28;20106;-35
2023/02/20 02:45:13;;;;;;;20.80;9.27;;;;;;;-4.10;74.16;97451.13;5064985;28;20130;-35
2023/02/20 02:47:39;;;;;;;21.45;9.45;;;;;;;-4.12;74.35;97456.22;5084354;28;20138;-35
2023/02/20 02:50:09;;;;;;;23.83;9.20;;;;;;;-4.14;74.08;97447.78;5086721;28;20238;-35
2023/02/20 02:52:48;;;;;;;21.17;8.65;;;;;;;-4.12;74.48;97451.13;5072374;28;20125;-35
2023/02/20 02:55:16;;;;;;;;;;;;;;;-4.13;74.47;97448.59;5053533;28;20051;-35
2023/02/20 02:57:42;;;;;;;22.15;9.13;;;;;;;-4.18;74.29;97443.59;5079572;28;19962;-35
2023/02/20 03:00:26;;;;;;;17.33;8.20;;;;;;;-4.19;73.70;97444.47;5079239;28;20055;-34
2023/02/20 03:03:12;;;;;;;17.90;8.90;;;;;;;-4.25;73.77;97449.63;5090525;28;20400;-34
2023/02/20 03:05:54;;;;;;;20.90;7.93;;;;;;;-4.28;74.11;97449.63;5102492;28;20039;-34
2023/02/20 03:08:39;;;;;;;24.88;10.05;;;;;;;-4.25;73.50;97452.16;5071453;28;20123;-35
2023/02/20 03:11:08;;;;;;;20.60;8.27;;;;;;;-4.23;73.91;97455.50;5063081;28;20055;-35
2023/02/20 03:16:29;;;;;;;23.67;9.45;;;;;;;-4.23;73.92;97452.13;5069198;28;20044;-35
2023/02/20 03:19:00;;;;;;;18.77;8.43;;;;;;;-4.44;73.87;97426.16;5055889;28;20039;-35
2023/02/20 03:21:26;;;;;;;18.70;7.65;;;;;;;-4.21;73.70;97466.47;5101571;28;20051;-36
2023/02/20 03:23:56;;;;;;;19.95;9.13;;;;;;;-4.19;73.38;97456.31;5080215;28;20046;-35
2023/02/20 03:26:27;;;;;;;19.42;8.85;;;;;;;-4.19;73.72;97462.22;5068074;28;20052;-34
2023/02/20 03:29:12;;;;;;;19.58;8.55;;;;;;;-4.17;73.79;97465.56;5070080;28;20392;-34
2023/02/20 03:31:47;;;;;;;17.35;8.07;;;;;;;-4.14;73.50;97469.78;5085143;28;20105;-35
2023/02/20 03:45:45;;;;;;;15.30;7.15;;;;;;;-4.12;72.81;97466.34;5082837;28;20047;-34
2023/02/20 03:48:30;;;;;;;20.75;7.88;;;;;;;-4.10;72.96;97468.88;5084607;28;20740;-35
2023/02/20 03:50:57;;;;;;;18.42;8.60;;;;;;;-4.11;72.79;97467.19;5051543;28;20404;-35
2023/02/20 03:53:27;;;;;;;20.67;8.25;;;;;;;-4.09;72.23;97465.50;5067777;28;20060;-34
2023/02/20 03:55:54;;;;;;;21.60;8.05;;;;;;;-4.28;72.24;97434.41;5060718;28;20142;-34
2023/02/20 03:58:22;;;;;;;18.45;8.13;;;;;;;-4.10;72.51;97467.19;5088271;28;20032;-35
2023/02/20 04:00:51;;;;;;;19.98;8.50;;;;;;;-4.07;72.48;97472.22;5044215;28;20040;-35
2023/02/20 04:03:21;;;;;;;22.05;8.13;;;;;;;-4.05;71.93;97472.19;5071277;28;20040;-35
2023/02/20 04:05:52;;;;;;;19.83;8.38;;;;;;;-4.03;72.41;97470.50;5068190;28;20044;-33
2023/02/20 04:08:34;;;;;;;22.13;9.13;;;;;;;-3.99;72.13;97462.81;5066677;28;20044;-35
2023/02/20 04:11:03;;;;;;;17.80;8.10;;;;;;;-3.98;72.11;97469.56;5064682;28;20036;-34
2023/02/20 04:13:30;;;;;;;21.80;9.10;;;;;;;-3.96;71.78;97459.41;5100619;28;20506;-35
2023/02/20 04:15:59;;;;;;;22.15;8.32;;;;;;;-3.98;72.05;97458.59;5069617;28;20047;-35
2023/02/20 04:18:27;;;;;;;24.90;9.18;;;;;;;-4.01;71.80;97453.53;5086282;28;20036;-33
2023/02/20 04:20:55;;;;;;;18.00;7.95;;;;;;;-4.07;71.91;97451.06;5066000;28;20474;-36
2023/02/20 04:23:28;;;;;;;20.13;8.57;;;;;;;-4.10;71.92;97446.91;5065446;28;20541;-35
2023/02/20 04:26:12;;;;;;;17.17;7.95;;;;;;;-4.44;71.82;97402.50;5107301;27;20154;-35
2023/02/20 04:28:40;;;;;;;21.80;7.97;;;;;;;-4.04;71.94;97466.28;5084545;28;20048;-35
2023/02/20 04:31:08;;;;;;;26.25;9.18;;;;;;;-4.04;71.67;97472.19;5082917;28;20138;-34
2023/02/20 04:33:36;;;;;;;20.10;8.52;;;;;;;-4.03;71.82;97471.31;5049044;28;20098;-34
2023/02/20 04:36:08;;;;;;;21.35;8.45;;;;;;;-4.16;71.87;97443.59;5069597;28;20507;-35
2023/02/20 04:38:35;;;;;;;19.98;8.82;;;;;;;-4.16;71.85;97443.59;5080500;28;20055;-35
2023/02/20 04:41:03;;;;;;;21.10;8.38;;;;;;;-4.02;71.69;97469.63;5085381;28;20044;-35
2023/02/20 04:43:29;;;;;;;19.90;9.07;;;;;;;-4.04;71.19;97462.03;5063646;28;20048;-35
2023/02/20 04:45:55;;;;;;;20.23;7.13;;;;;;;-4.02;71.71;97474.69;5050191;28;20076;-35
2023/02/20 04:48:22;;;;;;;19.95;7.82;;;;;;;-4.24;71.13;97455.53;5086194;28;20084;-35
2023/02/20 04:50:48;;;;;;;25.85;8.68;;;;;;;-4.02;71.23;97492.44;5080693;28;20074;-36
2023/02/20 04:53:15;;;;;;;18.20;7.72;;;;;;;-4.04;71.14;97487.41;5059519;28;20040;-34
2023/02/20 04:55:41;;;;;;;21.75;8.35;;;;;;;-3.99;71.15;97490.72;5050102;28;20526;-34
2023/02/20 04:58:11;;;;;;;18.70;7.78;;;;;;;-3.97;71.22;97489.00;5051264;28;20499;-35
2023/02/20 05:00:50;;;;;;;17.50;8.20;;;;;;;-4.15;71.12;97451.19;5081729;28;20395;-36
2023/02/20 05:03:16;;;;;;;20.88;8.85;;;;;;;-3.94;70.72;97494.06;5086455;28;20044;-35
2023/02/20 05:05:42;;;;;;;19.75;8.55;;;;;;;-4.14;71.08;97455.41;5067757;28;20048;-35
2023/02/20 05:08:08;;;;;;;18.05;8.13;;;;;;;-3.90;70.64;97494.84;5082723;28;20048;-34
2023/02/20 05:10:35;;;;;;;19.48;8.27;;;;;;;-3.88;71.08;97495.69;5077311;28;20032;-35
2023/02/20 05:13:01;;;;;;;21.98;9.07;;;;;;;-3.88;70.75;97490.59;5082332;28;20040;-34
2023/02/20 05:15:29;;;;;;;23.17;8.65;;;;;;;-3.94;70.72;97488.13;5082248;28;20786;-35
2023/02/20 05:17:55;;;;;;;16.52;7.07;;;;;;;-3.97;70.72;97491.53;5074947;28;20044;-35
2023/02/20 05:22:17;;;;;;;16.27;7.80;;;;;;;-3.94;70.14;97494.06;5106713;28;20522;-35
2023/02/20 05:23:06;;;;;;;21.15;8.27;;;;;;;-3.98;70.13;97489.84;5082162;28;20066;-36
2023/02/20 05:25:32;;;;;;;21.58;8.10;;;;;;;-3.93;70.51;97498.28;5063763;28;20070;-34
2023/02/20 05:27:58;;;;;;;22.85;8.98;;;;;;;-4.26;70.16;97432.72;5056772;28;20044;-35
2023/02/20 05:30:24;;;;;;;16.27;7.60;;;;;;;-3.86;70.31;97496.47;5086138;28;20046;-39
2023/02/20 05:32:50;;;;;;;17.15;7.68;;;;;;;-3.89;69.94;97494.00;5085041;28;20632;-35
2023/02/20 05:35:16;;;;;;;17.30;7.63;;;;;;;-3.89;70.32;97496.53;5061760;28;20564;-33
2023/02/20 05:37:42;;;;;;;20.30;8.95;;;;;;;-3.91;70.13;97491.47;5081134;28;20042;-34
2023/02/20 05:40:08;;;;;;;20.10;7.80;;;;;;;-3.90;69.85;97492.31;5084263;28;20403;-35
2023/02/20 05:42:34;;;;;;;18.52;7.95;;;;;;;-3.98;69.88;97484.78;5079557;28;20047;-34
2023/02/20 05:45:01;;;;;;;20.80;8.63;;;;;;;-3.92;69.60;97496.56;5087217;28;20451;-34
2023/02/20 05:47:27;;;;;;;22.92;9.05;;;;;;;-3.93;69.34;97497.44;5088236;28;20549;-34
2023/02/20 05:49:53;;;;;;;19.73;7.72;;;;;;;-3.94;69.61;97499.13;5092070;28;20157;-35
2023/02/20 05:52:18;;;;;;;19.55;7.95;;;;;;;-3.94;69.43;97499.13;5091822;28;20048;-35
2023/02/20 05:54:45;;;;;;;18.88;8.75;;;;;;;-3.95;69.03;97505.06;5091758;28;20422;-35
2023/02/20 05:57:11;;;;;;;17.80;8.20;;;;;;;-3.94;69.06;97501.66;5081914;28;20166;-34
2023/02/20 05:59:37;;;;;;;18.45;7.97;;;;;;;-3.88;69.21;97509.22;5087802;28;20041;-35
2023/02/20 06:02:03;;;;;;;15.98;7.88;;;;;;;-3.81;69.33;97507.41;5089420;28;20048;-34
2023/02/20 06:04:30;;;;;;;19.63;7.85;;;;;;;-3.81;68.89;97514.19;5073638;28;20032;-35
2023/02/20 06:06:56;;;;;;;16.55;7.40;;;;;;;-3.76;69.44;97514.97;5040252;28;20075;-36
2023/02/20 06:09:22;;;;;;;19.25;7.68;;;;;;;-3.76;68.83;97515.81;5090164;28;20089;-35
2023/02/20 06:11:50;;;;;;;17.88;7.43;;;;;;;-3.73;68.90;97518.31;5077416;28;20439;-34
2023/02/20 06:14:17;;;;;;;19.33;8.13;;;;;;;-3.70;68.98;97513.19;5069843;28;20117;-36
2023/02/20 06:16:44;;;;;;;17.65;8.00;;;;;;;-3.65;68.37;97524.13;5074858;28;20037;-35
2023/02/20 06:19:10;;;;;;;18.95;8.50;;;;;;;-3.56;68.43;97529.09;5100427;28;20067;-35
2023/02/20 06:21:39;;;;;;;19.45;8.00;;;;;;;-3.47;68.50;97530.69;5072133;28;20117;-35
2023/02/20 06:24:06;;;;;;;17.27;7.70;;;;;;;-3.64;68.04;97500.44;5094435;28;20039;-34
2023/02/20 06:26:32;;;;;;;18.42;7.90;;;;;;;-3.58;68.17;97514.75;5077092;28;20070;-34
2023/02/20 06:28:58;;;;;;;22.45;9.02;;;;;;;-3.41;68.14;97535.69;5089185;28;20129;-35
2023/02/20 06:31:26;;;;;;;18.20;7.60;;;;;;;-3.55;68.03;97505.38;5080845;28;20085;-35
2023/02/20 06:33:53;;;;;;;20.88;8.20;;;;;;;-3.58;67.99;97497.81;5082730;28;20493;-35
2023/02/20 06:36:29;;;;;;;17.85;7.88;;;;;;;-3.29;67.61;97539.72;5088576;28;20050;-36
2023/02/20 06:38:55;;;;;;;16.35;8.18;;;;;;;-3.26;67.35;97535.47;5070622;28;20044;-39
2023/02/20 06:41:21;;;;;;;18.10;7.63;;;;;;;-3.30;67.22;97516.06;5091665;28;20055;-48
2023/02/20 06:43:47;;;;;;;16.20;7.50;;;;;;;-3.14;67.12;97531.91;5090621;28;20046;-43
2023/02/20 06:46:13;;;;;;;18.48;7.13;;;;;;;-3.10;67.23;97538.63;5108782;28;20032;-46
2023/02/20 06:48:46;;;;;;;19.55;7.45;;;;;;;-3.08;67.16;97534.34;5109430;28;20820;-44
2023/02/20 06:51:12;;;;;;;18.70;8.02;;;;;;;-3.00;66.60;97551.16;5087203;28;20044;-44
2023/02/20 06:53:41;;;;;;;18.95;7.95;;;;;;;-2.87;66.97;97543.34;5090817;28;20760;-46
2023/02/20 06:56:09;;;;;;;20.27;8.20;;;;;;;-2.89;66.56;97538.28;5084669;28;20047;-45
2023/02/20 06:58:36;;;;;;;16.38;7.45;;;;;;;-2.80;66.51;97550.00;5069835;28;20041;-45
2023/02/20 07:01:02;;;;;;;19.98;8.50;;;;;;;-2.96;66.25;97495.19;5103123;28;20535;-44
2023/02/20 07:03:28;;;;;;;19.25;8.43;;;;;;;-2.71;66.01;97515.09;5070787;28;20048;-43
2023/02/20 07:05:54;;;;;;;18.65;7.57;;;;;;;-2.43;65.88;97543.47;5068366;28;20039;-44
2023/02/20 07:08:20;;;;;;;17.10;7.47;;;;;;;-2.29;65.67;97536.41;5090089;28;20047;-42
2023/02/20 07:10:46;;;;;;;16.63;8.25;;;;;;;-2.37;65.46;97514.53;5090537;28;20044;-43
2023/02/20 07:13:12;;;;;;;18.65;8.70;;;;;;;-2.15;65.07;97543.81;5070751;28;20093;-47
2023/02/20 07:15:38;;;;;;;19.27;7.93;;;;;;;-2.15;65.32;97543.81;5090608;28;20043;-43
2023/02/20 07:18:04;;;;;;;16.88;7.53;;;;;;;-2.18;64.71;97546.41;5072137;28;20044;-45
2023/02/20 07:20:30;;;;;;;17.73;8.07;;;;;;;-2.24;64.49;97542.25;5088513;28;20113;-44
2023/02/20 07:22:55;;;;;;;22.33;8.50;;;;;;;-2.26;64.59;97553.34;5090274;28;20036;-44
2023/02/20 07:25:21;;;;;;;17.52;8.00;;;;;;;-2.34;64.88;97532.28;5088805;28;20058;-47
2023/02/20 07:27:47;;;;;;;20.08;8.48;;;;;;;-2.18;64.71;97547.25;5079796;28;20040;-43
2023/02/20 07:30:13;;;;;;;17.38;8.45;;;;;;;-2.16;64.45;97550.59;5068704;28;20041;-45
2023/02/20 07:32:39;;;;;;;19.25;8.75;;;;;;;-2.12;64.43;97553.94;5069943;28;20044;-46
2023/02/20 07:35:05;;;;;;;18.88;7.68;;;;;;;-2.15;64.31;97544.63;5068445;28;20132;-44
2023/02/20 07:37:32;;;;;;;23.25;9.13;;;;;;;-2.14;64.10;97553.09;5078388;28;20054;-46
2023/02/20 07:39:58;;;;;;;18.88;8.40;;;;;;;-2.10;64.19;97551.38;5089993;28;20032;-44
2023/02/20 07:42:24;;;;;;;20.73;8.23;;;;;;;-2.30;63.68;97522.00;5078921;28;20131;-38
2023/02/20 07:44:57;;;;;;;19.92;8.80;;;;;;;-2.26;63.81;97517.72;5036028;28;20059;-38
2023/02/20 07:47:23;;;;;;;20.00;7.90;;;;;;;-2.03;63.88;97545.28;5069125;28;20052;-38
2023/02/20 07:49:49;;;;;;;19.25;8.85;;;;;;;-2.05;63.69;97552.97;5079371;28;20070;-38
2023/02/20 07:52:15;;;;;;;16.45;8.45;;;;;;;-2.05;63.62;97558.06;5089436;28;20056;-43
2023/02/20 07:54:40;;;;;;;20.15;8.50;;;;;;;-2.02;63.51;97552.88;5088167;28;20039;-37
2023/02/20 07:57:06;;;;;;;16.83;8.32;;;;;;;-1.96;63.31;97562.13;5082921;28;20072;-37
2023/02/20 07:59:32;;;;;;;20.48;9.43;;;;;;;-1.93;62.96;97567.13;5067773;28;20032;-37
2023/02/20 08:01:58;;;;;;;19.50;8.63;;;;;;;-2.06;62.96;97535.16;5068838;28;20036;-37
2023/02/20 08:04:24;;;;;;;22.65;10.43;;;;;;;-1.99;62.91;97531.63;5068942;28;20036;-37
2023/02/20 08:06:50;;;;;;;21.25;9.68;;;;;;;-1.69;62.42;97573.47;5069156;28;20474;-37
2023/02/20 08:09:16;;;;;;;24.60;8.68;;;;;;;-1.60;62.50;97570.75;5067920;28;20045;-37
2023/02/20 08:11:42;;;;;;;22.88;8.80;;;;;;;-1.43;62.38;97572.09;5068767;28;20033;-37
2023/02/20 08:14:07;;;;;;;20.10;8.55;;;;;;;-1.45;62.05;97545.78;5087958;28;20050;-37
2023/02/20 08:16:33;;;;;;;22.02;9.90;;;;;;;-1.12;61.74;97573.97;5089008;28;20043;-37
2023/02/20 08:18:59;;;;;;;20.60;9.15;;;;;;;-0.97;61.63;97571.09;5088376;28;20123;-38
2023/02/20 08:21:26;;;;;;;20.70;8.93;;;;;;;-0.84;61.30;97571.66;5068773;28;20060;-37
2023/02/20 08:23:53;;;;;;;18.48;8.10;;;;;;;-0.71;60.80;97580.69;5067497;28;20042;-37
2023/02/20 08:26:20;;;;;;;19.35;8.25;;;;;;;-0.61;60.53;97572.78;5067643;28;20409;-37
2023/02/20 08:28:47;;;;;;;21.10;9.38;;;;;;;-0.61;60.50;97575.34;5082593;28;20121;-38
2023/02/20 08:31:13;;;;;;;19.40;9.38;;;;;;;-0.59;60.06;97571.06;5087714;28;20036;-35
2023/02/20 08:33:39;;;;;;;19.80;9.13;;;;;;;-0.54;59.96;97556.47;5087587;28;20040;-38
2023/02/20 08:36:06;;;;;;;22.83;9.85;;;;;;;-0.32;59.12;97578.91;5088693;28;20506;-38
2023/02/20 08:38:33;;;;;;;23.05;10.20;;;;;;;-0.47;58.84;97569.91;5074849;28;20068;-37
2023/02/20 08:41:03;;;;;;;24.88;10.63;;;;;;;-0.36;58.93;97582.41;5067186;28;20072;-38
2023/02/20 08:43:29;;;;;;;;;;;;;;;-0.24;58.61;97593.16;5067552;28;20032;-37
2023/02/20 08:45:55;;;;;;;21.15;9.10;;;;;;;-0.02;58.34;97593.44;5068261;28;19948;-38
2023/02/20 08:48:21;;;;;;;25.95;10.23;;;;;;;0.26;58.24;97591.00;5068208;28;20067;-36
2023/02/20 08:50:47;;;;;;;17.92;9.30;;;;;;;0.12;57.39;97529.22;5101875;27;20044;-38
2023/02/20 08:53:13;;;;;;;24.98;10.25;;;;;;;0.68;57.27;97587.25;5101055;28;20036;-38
2023/02/20 08:55:39;;;;;;;21.98;9.95;;;;;;;0.73;56.75;97593.06;5050611;28;20063;-36
2023/02/20 08:58:05;;;;;;;18.95;8.93;;;;;;;0.66;56.45;97594.13;5072337;28;20040;-37
2023/02/20 09:00:31;;;;;;;20.73;9.65;;;;;;;0.31;56.41;97558.50;5087249;28;20135;-37
2023/02/20 09:02:58;;;;;;;25.48;11.75;;;;;;;0.37;56.44;97588.97;5087070;28;20040;-36
2023/02/20 09:05:25;;;;;;;22.05;10.52;;;;;;;0.30;56.95;97584.94;5104145;28;20724;-37
2023/02/20 09:07:51;;;;;;;25.13;11.20;;;;;;;0.00;56.70;97540.63;5085558;28;20061;-37
2023/02/20 09:10:20;;;;;;;23.60;10.15;;;;;;;0.09;56.87;97577.84;5068152;28;20051;-37
2023/02/20 09:12:46;;;;;;;21.05;10.27;;;;;;;0.02;57.08;97577.16;5068036;28;20131;-37
2023/02/20 09:15:16;;;;;;;31.02;11.13;;;;;;;-0.01;56.94;97580.66;5083356;28;20085;-36
2023/02/20 09:17:44;;;;;;;22.58;10.65;;;;;;;0.00;57.16;97577.19;5050140;28;20040;-36
2023/02/20 09:20:10;;;;;;;21.00;10.10;;;;;;;0.05;56.74;97586.47;5121484;28;20527;-37
2023/02/20 09:22:36;;;;;;;27.20;10.65;;;;;;;0.03;56.55;97583.94;5092650;28;20040;-37
2023/02/20 09:25:03;;;;;;;25.67;10.73;;;;;;;-0.13;56.73;97595.44;5091398;28;20055;-36
2023/02/20 09:27:29;;;;;;;27.50;11.00;;;;;;;-0.18;57.06;97605.78;5091988;28;20080;-37
2023/02/20 09:29:55;;;;;;;21.58;9.70;;;;;;;-0.15;57.03;97600.56;5075835;28;20046;-37
2023/02/20 09:32:21;;;;;;;25.92;10.70;;;;;;;-0.26;56.80;97587.22;5053947;28;20036;-37
2023/02/20 09:34:47;;;;;;;22.00;10.07;;;;;;;-0.23;57.04;97597.38;5072024;28;20257;-38
2023/02/20 09:37:13;;;;;;;27.23;10.23;;;;;;;-0.45;57.31;97574.09;5072038;28;20041;-37
2023/02/20 09:39:39;;;;;;;22.70;9.60;;;;;;;-0.43;56.84;97577.47;5084748;28;20036;-38
2023/02/20 09:42:30;;;;;;;21.10;9.30;;;;;;;-0.23;56.82;97599.09;5092156;28;20039;-38
2023/02/20 09:45:16;;;;;;;21.65;9.77;;;;;;;-0.21;56.81;97595.63;5070343;28;20044;-37
2023/02/20 09:47:54;;;;;;;19.17;8.70;;;;;;;-0.21;56.25;97594.81;5070339;28;20060;-37
2023/02/20 09:51:02;;;;;;;21.67;9.02;;;;;;;-0.16;56.25;97588.69;5087925;28;20047;-38
2023/02/20 09:53:48;;;;;;;21.88;9.18;;;;;;;-0.08;55.90;97578.28;5073605;28;20055;-37
2023/02/20 09:56:24;;;;;;;19.23;8.55;;;;;;;0.13;56.01;97582.00;5091706;28;20509;-37
2023/02/20 09:58:59;;;;;;;20.13;9.60;;;;;;;0.04;55.66;97547.31;5087868;28;20039;-38
2023/02/20 10:01:25;;;;;;;18.17;8.60;;;;;;;0.31;55.57;97586.63;5070126;28;20040;-38
2023/02/20 10:04:06;;;;;;;18.50;9.13;;;;;;;0.33;55.19;97588.22;5071169;28;20416;-36
2023/02/20 10:06:34;;;;;;;21.85;8.43;;;;;;;0.40;55.15;97584.66;5069988;28;20097;-37
2023/02/20 10:09:01;;;;;;;18.63;8.73;;;;;;;0.41;55.12;97581.22;5073441;28;20065;-40
2023/02/20 10:11:48;;;;;;;15.52;7.90;;;;;;;0.39;54.64;97579.56;5089907;28;20526;-37
2023/02/20 10:15:01;;;;;;;19.20;8.88;;;;;;;0.31;54.39;97584.06;5086268;28;20142;-36
2023/02/20 10:17:54;;;;;;;18.90;8.55;;;;;;;0.30;54.62;97587.50;5012576;28;20063;-37
2023/02/20 10:20:46;;;;;;;18.55;8.25;;;;;;;0.27;54.84;97593.50;5040016;28;20032;-37
2023/02/20 10:23:33;;;;;;;17.92;8.75;;;;;;;0.27;54.94;97585.00;5066728;28;20059;-36
2023/02/20 10:26:03;;;;;;;19.05;8.73;;;;;;;0.17;55.09;97581.84;5070966;28;20048;-37
2023/02/20 10:28:28;;;;;;;23.02;8.63;;;;;;;0.10;55.19;97595.69;5082242;28;20044;-37
2023/02/20 10:31:00;;;;;;;22.75;9.05;;;;;;;0.03;55.18;97590.78;5075235;28;20193;-37
2023/02/20 10:33:41;;;;;;;19.77;8.35;;;;;;;-0.04;55.49;97590.94;5068671;28;20075;-38
2023/02/20 10:36:21;;;;;;;22.67;8.27;;;;;;;-0.13;55.39;97583.50;5069343;28;20135;-37
2023/02/20 10:39:07;;;;;;;20.77;8.57;;;;;;;-0.24;55.52;97582.09;5069503;28;20062;-38
2023/02/20 10:41:58;;;;;;;18.38;9.15;;;;;;;-0.25;55.30;97586.38;5070812;28;20123;-39
2023/02/20 10:44:37;;;;;;;22.98;8.20;;;;;;;-0.57;55.04;97531.00;5071205;28;20131;-37
2023/02/20 10:47:02;;;;;;;21.85;8.35;;;;;;;-0.30;55.50;97583.09;5088467;28;20044;-37
2023/02/20 10:49:42;;;;;;;20.60;8.50;;;;;;;-0.15;54.99;97582.69;5088983;28;20054;-37
2023/02/20 10:52:15;;;;;;;20.15;8.25;;;;;;;0.08;54.99;97578.72;5089487;28;20040;-37
2023/02/20 10:54:50;;;;;;;23.08;8.98;;;;;;;0.25;54.42;97551.84;5069650;28;20085;-37
2023/02/20 10:57:25;;;;;;;19.45;8.80;;;;;;;0.53;54.22;97590.22;5052587;28;20044;-36
2023/02/20 10:59:58;;;;;;;23.15;9.23;;;;;;;0.50;54.15;97587.78;5037604;28;20036;-36
2023/02/20 11:02:27;;;;;;;23.75;9.50;;;;;;;0.48;54.26;97576.75;5090068;28;20036;-38
2023/02/20 11:05:01;;;;;;;20.20;8.75;;;;;;;0.25;54.57;97559.50;5089179;28;20047;-38
2023/02/20 11:07:27;;;;;;;17.77;8.38;;;;;;;0.25;54.49;97558.69;5088978;28;20047;-36
2023/02/20 11:09:53;;;;;;;19.33;8.82;;;;;;;0.22;53.89;97562.13;5088007;28;20138;-38
2023/02/20 11:12:37;;;;;;;17.48;8.00;;;;;;;0.34;54.22;97582.25;5069806;28;20127;-38
2023/02/20 11:15:13;;;;;;;17.73;7.88;;;;;;;0.36;53.78;97585.63;5070423;28;20040;-38
2023/02/20 11:17:40;;;;;;;17.30;7.95;;;;;;;0.50;53.11;97581.81;5090097;28;20047;-37
2023/02/20 11:20:37;;;;;;;19.40;8.38;;;;;;;0.66;53.50;97581.34;5068828;28;20048;-38
2023/02/20 11:23:03;;;;;;;19.85;8.73;;;;;;;0.76;52.93;97587.88;5069959;28;20054;-38
2023/02/20 11:25:34;;;;;;;17.25;8.68;;;;;;;0.79;52.96;97576.69;5069972;28;20396;-38
2023/02/20 11:28:22;;;;;;;25.15;10.60;;;;;;;0.70;52.71;97590.59;5068235;28;20534;-37
2023/02/20 11:30:58;;;;;;;19.08;9.20;;;;;;;0.54;52.96;97589.34;5054697;28;20145;-38
2023/02/20 11:33:27;;;;;;;19.13;8.50;;;;;;;0.43;53.48;97593.94;5051764;28;20129;-37
2023/02/20 11:36:09;;;;;;;21.40;9.68;;;;;;;0.29;53.42;97596.88;5068334;28;20040;-39
2023/02/20 11:38:36;;;;;;;19.45;8.63;;;;;;;0.06;53.72;97593.22;5069653;28;20036;-39
2023/02/20 11:41:12;;;;;;;21.88;8.60;;;;;;;-0.16;54.02;97598.88;5077250;28;20517;-39
2023/02/20 11:43:43;;;;;;;19.77;8.75;;;;;;;-0.29;54.46;97597.53;5088270;28;20043;-36
2023/02/20 11:46:20;;;;;;;19.55;8.43;;;;;;;-0.39;54.23;97601.19;5080949;28;20055;-37
2023/02/20 11:49:05;;;;;;;17.52;8.98;;;;;;;-0.51;54.76;97598.91;5069354;28;20483;-38
2023/02/20 11:51:41;;;;;;;17.67;8.65;;;;;;;-0.59;54.85;97599.13;5078743;28;20123;-38
2023/02/20 11:54:23;;;;;;;18.17;9.02;;;;;;;-0.61;54.77;97600.84;5089350;28;20051;-38